createdAt,value
2022-10-02T00:01:18.015Z,1.73
2022-10-02T00:03:47.067Z,2.20
2022-10-02T00:06:21.870Z,1.57
2022-10-02T00:08:51.923Z,1.50
2022-10-02T00:11:24.119Z,1.70
2022-10-02T00:13:57.241Z,1.90
2022-10-02T00:16:29.374Z,1.33
2022-10-02T00:18:57.929Z,1.60
2022-10-02T00:21:47.071Z,1.60
2022-10-02T00:24:18.390Z,1.53
2022-10-02T00:26:53.739Z,1.70
2022-10-02T00:29:33.252Z,1.80
2022-10-02T00:32:16.608Z,1.60
2022-10-02T00:34:56.090Z,1.60
2022-10-02T00:37:34.514Z,1.60
2022-10-02T00:40:10.431Z,1.70
2022-10-02T00:43:01.630Z,1.80
2022-10-02T00:45:49.563Z,1.57
2022-10-02T00:48:31.728Z,1.60
2022-10-02T00:51:09.737Z,1.63
2022-10-02T00:53:50.518Z,1.70
2022-10-02T00:56:28.959Z,1.40
2022-10-02T00:59:09.937Z,1.60
2022-10-02T01:01:47.200Z,1.70
2022-10-02T01:04:19.726Z,1.50
2022-10-02T01:06:47.590Z,1.60
2022-10-02T01:09:16.512Z,1.63
2022-10-02T01:11:44.980Z,1.70
2022-10-02T01:14:13.787Z,1.77
2022-10-02T01:16:44.107Z,1.60
2022-10-02T01:19:22.279Z,1.73
2022-10-02T01:21:54.332Z,1.80
2022-10-02T01:24:29.381Z,2.10
2022-10-02T01:26:59.470Z,1.70
2022-10-02T01:29:27.462Z,1.90
2022-10-02T01:31:56.872Z,1.80
2022-10-02T01:34:25.400Z,1.50
2022-10-02T01:36:53.568Z,1.60
2022-10-02T01:39:22.753Z,1.60
2022-10-02T01:41:50.604Z,1.90
2022-10-02T01:44:19.760Z,1.77
2022-10-02T01:46:57.773Z,1.50
2022-10-02T01:49:42.024Z,1.93
2022-10-02T01:52:30.782Z,1.60
2022-10-02T01:55:14.595Z,1.70
2022-10-02T01:57:55.260Z,1.60
2022-10-02T02:00:26.223Z,1.80
2022-10-02T02:03:01.104Z,1.53
2022-10-02T02:05:43.059Z,1.67
2022-10-02T02:08:16.795Z,1.57
2022-10-02T02:10:53.156Z,1.77
2022-10-02T02:13:26.537Z,1.60
2022-10-02T02:16:01.025Z,1.50
2022-10-02T02:18:34.858Z,1.43
2022-10-02T02:21:07.491Z,1.33
2022-10-02T02:23:38.304Z,1.60
2022-10-02T02:26:12.267Z,1.60
2022-10-02T02:28:45.675Z,1.70
2022-10-02T02:31:18.935Z,1.50
2022-10-02T02:33:50.684Z,1.80
2022-10-02T02:36:23.050Z,1.60
2022-10-02T02:38:54.272Z,1.50
2022-10-02T02:41:27.288Z,1.70
2022-10-02T02:44:02.097Z,1.83
2022-10-02T02:47:06.721Z,1.80
2022-10-02T02:49:48.294Z,1.53
2022-10-02T02:52:20.434Z,1.90
2022-10-02T02:54:51.469Z,1.67
2022-10-02T02:57:26.016Z,1.70
2022-10-02T02:59:57.322Z,1.73
2022-10-02T03:02:26.508Z,2.10
2022-10-02T03:04:54.419Z,2.13
2022-10-02T03:07:22.263Z,1.73
2022-10-02T03:09:58.064Z,1.63
2022-10-02T03:12:36.869Z,1.40
2022-10-02T03:15:21.021Z,1.57
2022-10-02T03:18:03.234Z,1.30
2022-10-02T03:20:41.666Z,1.67
2022-10-02T03:23:17.840Z,1.30
2022-10-02T03:25:53.614Z,1.30
2022-10-02T03:28:53.632Z,1.70
2022-10-02T03:31:21.180Z,1.53
2022-10-02T03:33:53.571Z,1.30
2022-10-02T03:36:24.387Z,1.20
2022-10-02T03:39:19.728Z,1.53
2022-10-02T03:41:42.161Z,1.50
2022-10-02T03:44:09.939Z,1.50
2022-10-02T03:46:38.117Z,1.27
2022-10-02T03:49:07.552Z,1.50
2022-10-02T03:51:35.371Z,1.57
2022-10-02T03:54:03.162Z,1.40
2022-10-02T03:56:39.677Z,1.50
2022-10-02T03:59:14.898Z,1.57
2022-10-02T04:01:49.315Z,1.50
2022-10-02T04:04:24.334Z,1.70
2022-10-02T04:06:56.812Z,1.80
2022-10-02T04:09:30.314Z,2.03
2022-10-02T04:12:01.721Z,1.70
2022-10-02T04:14:35.907Z,1.70
2022-10-02T04:17:07.504Z,1.97
2022-10-02T04:19:42.012Z,2.03
2022-10-02T04:22:16.656Z,1.40
2022-10-02T04:24:49.112Z,1.80
2022-10-02T04:27:22.469Z,1.80
2022-10-02T04:29:56.156Z,1.60
2022-10-02T04:32:26.920Z,1.50
2022-10-02T04:34:56.274Z,1.57
2022-10-02T04:37:35.955Z,1.97
2022-10-02T04:40:14.699Z,1.53
2022-10-02T04:42:55.944Z,1.70
2022-10-02T04:45:38.796Z,1.70
2022-10-02T04:48:45.127Z,1.57
2022-10-02T04:51:27.504Z,1.80
2022-10-02T04:54:19.608Z,1.60
2022-10-02T04:57:02.565Z,1.63
2022-10-02T05:00:06.345Z,1.97
2022-10-02T05:02:46.224Z,1.53
2022-10-02T05:05:32.776Z,1.87
2022-10-02T05:08:29.879Z,1.73
2022-10-02T05:11:08.401Z,1.30
2022-10-02T05:13:57.825Z,1.20
2022-10-02T05:16:37.212Z,1.43
2022-10-02T05:19:21.519Z,1.47
2022-10-02T05:22:19.673Z,1.20
2022-10-02T05:24:58.899Z,1.70
2022-10-02T05:27:49.726Z,1.20
2022-10-02T05:30:18.856Z,1.70
2022-10-02T05:33:11.259Z,1.30
2022-10-02T05:35:59.860Z,1.60
2022-10-02T05:38:50.304Z,2.13
2022-10-02T05:41:23.711Z,1.50
2022-10-02T05:44:02.518Z,1.60
2022-10-02T05:46:36.446Z,1.60
2022-10-02T05:49:10.824Z,1.97
2022-10-02T05:51:42.696Z,1.40
2022-10-02T05:54:22.468Z,1.20
2022-10-02T05:56:59.058Z,1.30
2022-10-02T05:59:33.497Z,1.53
2022-10-02T06:02:06.001Z,1.30
2022-10-02T06:04:40.641Z,1.40
2022-10-02T06:07:10.985Z,1.60
2022-10-02T06:09:46.348Z,1.50
2022-10-02T06:12:20.464Z,1.50
2022-10-02T06:14:53.328Z,1.47
2022-10-02T06:17:25.907Z,1.30
2022-10-02T06:20:03.218Z,1.50
2022-10-02T06:22:36.824Z,1.30
2022-10-02T06:25:12.215Z,1.73
2022-10-02T06:27:47.618Z,1.20
2022-10-02T06:30:17.522Z,1.40
2022-10-02T06:32:52.610Z,1.53
2022-10-02T06:35:32.996Z,1.00
2022-10-02T06:38:13.083Z,1.30
2022-10-02T06:40:48.086Z,1.30
2022-10-02T06:43:33.862Z,1.30
2022-10-02T06:46:14.717Z,1.30
2022-10-02T06:48:51.860Z,1.00
2022-10-02T06:51:24.060Z,1.10
2022-10-02T06:54:06.292Z,1.23
2022-10-02T06:56:45.623Z,0.90
2022-10-02T06:59:30.452Z,1.23
2022-10-02T07:02:05.466Z,1.00
2022-10-02T07:04:51.950Z,0.90
2022-10-02T07:07:34.767Z,0.93
2022-10-02T07:10:21.550Z,0.87
2022-10-02T07:13:11.236Z,0.90
2022-10-02T07:16:08.460Z,1.20
2022-10-02T07:18:53.863Z,0.90
2022-10-02T07:21:32.903Z,0.90
2022-10-02T07:24:20.530Z,0.93
2022-10-02T07:26:55.197Z,1.13
2022-10-02T07:29:37.514Z,0.80
2022-10-02T07:32:47.370Z,1.00
2022-10-02T07:35:42.007Z,0.67
2022-10-02T07:38:44.079Z,0.90
2022-10-02T07:41:23.071Z,0.70
2022-10-02T07:44:01.231Z,0.70
2022-10-02T07:46:38.564Z,0.80
2022-10-02T07:49:22.073Z,0.70
2022-10-02T07:51:59.273Z,0.70
2022-10-02T07:54:53.512Z,0.70
2022-10-02T07:57:37.395Z,0.70
2022-10-02T08:00:08.368Z,1.10
2022-10-02T08:02:40.533Z,0.73
2022-10-02T08:05:18.529Z,0.60
2022-10-02T08:07:50.760Z,0.60
2022-10-02T08:10:25.684Z,0.70
2022-10-02T08:13:00.518Z,0.70
2022-10-02T08:15:32.090Z,0.70
2022-10-02T08:18:30.177Z,0.60
2022-10-02T08:20:53.099Z,0.60
2022-10-02T08:23:26.075Z,0.60
2022-10-02T08:26:02.593Z,0.90
2022-10-02T08:28:36.751Z,0.80
2022-10-02T08:31:10.153Z,0.70
2022-10-02T08:33:39.088Z,0.80
2022-10-02T08:36:39.830Z,0.80
2022-10-02T08:39:21.652Z,0.67
2022-10-02T08:42:22.304Z,0.60
2022-10-02T08:45:35.166Z,0.60
2022-10-02T08:48:43.486Z,0.70
2022-10-02T08:51:44.495Z,0.70
2022-10-02T08:54:49.476Z,0.73
2022-10-02T08:57:43.897Z,0.70
2022-10-02T09:00:23.275Z,0.80
2022-10-02T09:03:20.020Z,0.60
2022-10-02T09:06:09.168Z,0.80
2022-10-02T09:09:07.228Z,0.70
2022-10-02T09:12:10.333Z,0.70
2022-10-02T09:14:50.151Z,0.60
2022-10-02T09:17:36.070Z,0.60
2022-10-02T09:20:31.050Z,0.70
2022-10-02T09:23:47.444Z,0.60
2022-10-02T09:26:20.835Z,0.60
2022-10-02T09:29:39.436Z,0.60
2022-10-02T09:32:54.897Z,0.60
2022-10-02T09:36:00.131Z,0.60
2022-10-02T09:38:54.498Z,0.60
2022-10-02T09:41:50.020Z,0.60
2022-10-02T09:45:01.572Z,0.70
2022-10-02T09:48:01.451Z,0.53
2022-10-02T09:51:15.738Z,0.83
2022-10-02T09:54:25.707Z,0.80
2022-10-02T09:57:36.853Z,1.03
2022-10-02T10:00:18.794Z,0.70
2022-10-02T10:03:26.824Z,0.70
2022-10-02T10:06:34.091Z,0.70
2022-10-02T10:09:27.852Z,0.60
2022-10-02T10:12:41.511Z,0.83
2022-10-02T10:16:05.969Z,0.73
2022-10-02T10:19:02.851Z,0.80
2022-10-02T10:21:58.553Z,0.77
2022-10-02T10:25:02.103Z,0.60
2022-10-02T10:28:28.934Z,0.80
2022-10-02T10:31:29.835Z,0.70
2022-10-02T10:34:36.453Z,0.80
2022-10-02T10:37:24.804Z,1.20
2022-10-02T10:40:21.131Z,0.90
2022-10-02T10:43:17.557Z,0.87
2022-10-02T10:46:02.776Z,1.00
2022-10-02T10:48:47.137Z,1.00
2022-10-02T10:51:31.439Z,1.10
2022-10-02T10:54:31.900Z,0.90
2022-10-02T10:57:05.987Z,1.23
2022-10-02T10:59:59.739Z,0.97
2022-10-02T11:03:00.400Z,1.00
2022-10-02T11:05:54.583Z,1.00
2022-10-02T11:08:47.460Z,1.30
2022-10-02T11:11:22.836Z,1.20
2022-10-02T11:14:05.557Z,1.00
2022-10-02T11:17:09.111Z,1.10
2022-10-02T11:19:50.779Z,1.10
2022-10-02T11:22:38.154Z,1.07
2022-10-02T11:25:23.328Z,1.10
2022-10-02T11:28:28.526Z,1.07
2022-10-02T11:31:17.339Z,1.00
2022-10-02T11:34:08.049Z,0.90
2022-10-02T11:36:52.742Z,1.73
2022-10-02T11:39:46.884Z,1.00
2022-10-02T11:42:54.113Z,1.30
2022-10-02T11:45:39.281Z,1.10
2022-10-02T11:48:34.977Z,1.10
2022-10-02T11:51:26.073Z,1.67
2022-10-02T11:54:10.084Z,1.30
2022-10-02T11:57:01.929Z,1.13
2022-10-02T11:59:54.088Z,1.07
2022-10-02T12:02:27.346Z,1.30
2022-10-02T12:05:11.367Z,1.20
2022-10-02T12:07:46.702Z,1.40
2022-10-02T12:10:29.358Z,1.00
2022-10-02T12:13:15.801Z,1.10
2022-10-02T12:15:51.928Z,1.00
2022-10-02T12:18:41.647Z,0.93
2022-10-02T12:21:39.871Z,0.90
2022-10-02T12:24:35.162Z,1.10
2022-10-02T12:27:14.040Z,1.20
2022-10-02T12:30:00.388Z,1.53
2022-10-02T12:32:44.321Z,0.90
2022-10-02T12:35:27.999Z,1.00
2022-10-02T12:38:03.316Z,1.17
2022-10-02T12:40:37.057Z,1.13
2022-10-02T12:43:23.058Z,1.00
2022-10-02T12:46:18.989Z,1.10
2022-10-02T12:49:09.935Z,1.37
2022-10-02T12:51:41.452Z,1.03
2022-10-02T12:54:46.069Z,1.20
2022-10-02T12:57:43.476Z,1.60
2022-10-02T13:00:16.371Z,1.10
2022-10-02T13:03:10.717Z,2.00
2022-10-02T13:06:10.791Z,1.40
2022-10-02T13:08:54.440Z,1.30
2022-10-02T13:11:34.353Z,1.13
2022-10-02T13:14:54.233Z,1.30
2022-10-02T13:17:29.234Z,2.50
2022-10-02T13:20:04.418Z,1.20
2022-10-02T13:22:41.506Z,1.50
2022-10-02T13:25:37.614Z,1.50
2022-10-02T13:28:28.486Z,1.50
2022-10-02T13:31:11.872Z,1.80
2022-10-02T13:34:06.853Z,1.83
2022-10-02T13:36:50.376Z,1.20
2022-10-02T13:39:42.267Z,2.00
2022-10-02T13:42:25.984Z,1.40
2022-10-02T13:45:02.552Z,1.03
2022-10-02T13:47:45.023Z,1.40
2022-10-02T13:50:23.448Z,1.30
2022-10-02T13:53:05.005Z,1.10
2022-10-02T13:55:40.945Z,1.10
2022-10-02T13:58:22.771Z,1.50
2022-10-02T14:01:19.691Z,1.20
2022-10-02T14:04:06.363Z,1.40
2022-10-02T14:06:38.784Z,1.50
2022-10-02T14:09:15.794Z,1.27
2022-10-02T14:11:59.233Z,1.50
2022-10-02T14:14:39.905Z,1.60
2022-10-02T14:17:18.582Z,1.30
2022-10-02T14:20:06.123Z,1.33
2022-10-02T14:22:46.380Z,1.20
2022-10-02T14:25:49.153Z,1.10
2022-10-02T14:28:37.115Z,1.30
2022-10-02T14:31:24.877Z,1.30
2022-10-02T14:34:27.325Z,1.10
2022-10-02T14:37:18.120Z,1.70
2022-10-02T14:39:46.222Z,1.33
2022-10-02T14:42:28.461Z,1.40
2022-10-02T14:45:31.984Z,1.20
2022-10-02T14:48:17.444Z,1.60
2022-10-02T14:51:06.412Z,1.13
2022-10-02T14:54:00.614Z,1.20
2022-10-02T14:56:51.109Z,1.97
2022-10-02T14:59:57.823Z,1.70
2022-10-02T15:02:51.731Z,1.57
2022-10-02T15:05:42.338Z,1.20
2022-10-02T15:08:16.584Z,1.70
2022-10-02T15:10:49.117Z,1.70
2022-10-02T15:13:28.459Z,1.30
2022-10-02T15:16:20.294Z,1.77
2022-10-02T15:19:03.951Z,1.33
2022-10-02T15:21:39.557Z,1.63
2022-10-02T15:24:29.353Z,2.00
2022-10-02T15:27:09.056Z,1.60
2022-10-02T15:29:47.373Z,2.30
2022-10-02T15:32:45.024Z,1.80
2022-10-02T15:35:25.531Z,2.10
2022-10-02T15:38:12.101Z,1.90
2022-10-02T15:40:47.131Z,2.33
2022-10-02T15:43:42.762Z,1.93
2022-10-02T15:46:20.304Z,1.93
2022-10-02T15:49:08.314Z,1.57
2022-10-02T15:52:00.561Z,1.53
2022-10-02T15:54:55.096Z,2.30
2022-10-02T15:57:34.258Z,2.10
2022-10-02T16:00:20.375Z,2.50
2022-10-02T16:03:06.134Z,1.63
2022-10-02T16:05:52.401Z,4.60
2022-10-02T16:08:55.438Z,3.13
2022-10-02T16:11:57.771Z,2.97
2022-10-02T16:14:42.757Z,2.27
2022-10-02T16:17:23.995Z,2.47
2022-10-02T16:20:14.956Z,3.23
2022-10-02T16:22:58.199Z,1.70
2022-10-02T16:25:41.923Z,1.73
2022-10-02T16:28:22.981Z,2.57
2022-10-02T16:31:12.945Z,1.90
2022-10-02T16:33:52.573Z,1.50
2022-10-02T16:36:30.184Z,1.93
2022-10-02T16:39:19.288Z,1.80
2022-10-02T16:42:02.018Z,1.57
2022-10-02T16:44:48.155Z,1.43
2022-10-02T16:47:27.475Z,1.63
2022-10-02T16:49:59.935Z,1.60
2022-10-02T16:52:32.781Z,1.77
2022-10-02T16:55:09.328Z,1.60
2022-10-02T16:57:55.542Z,1.73
2022-10-02T17:00:29.489Z,1.60
2022-10-02T17:03:04.951Z,1.70
2022-10-02T17:05:45.976Z,1.50
2022-10-02T17:08:22.733Z,1.77
2022-10-02T17:11:15.190Z,1.40
2022-10-02T17:13:59.669Z,1.50
2022-10-02T17:16:33.889Z,1.70
2022-10-02T17:19:16.525Z,1.43
2022-10-02T17:21:51.217Z,1.27
2022-10-02T17:24:42.538Z,1.30
2022-10-02T17:27:15.365Z,1.80
2022-10-02T17:29:53.946Z,1.40
2022-10-02T17:32:48.185Z,1.70
2022-10-02T17:35:18.394Z,1.60
2022-10-02T17:38:24.092Z,1.57
2022-10-02T17:40:58.941Z,1.73
2022-10-02T17:43:33.202Z,1.10
2022-10-02T17:46:29.294Z,1.57
2022-10-02T17:49:04.821Z,1.20
2022-10-02T17:51:59.264Z,1.27
2022-10-02T17:55:08.458Z,1.60
2022-10-02T17:57:49.603Z,1.10
2022-10-02T18:00:21.881Z,1.67
2022-10-02T18:03:36.980Z,1.60
2022-10-02T18:06:17.473Z,1.13
2022-10-02T18:09:11.283Z,1.13
2022-10-02T18:12:00.162Z,1.20
2022-10-02T18:14:52.985Z,1.23
2022-10-02T18:17:30.309Z,1.20
2022-10-02T18:20:12.175Z,1.43
2022-10-02T18:23:02.040Z,2.20
2022-10-02T18:25:54.166Z,1.40
2022-10-02T18:28:56.640Z,1.50
2022-10-02T18:31:55.818Z,1.40
2022-10-02T18:34:53.495Z,1.67
2022-10-02T18:37:51.133Z,1.40
2022-10-02T18:40:24.947Z,1.30
2022-10-02T18:43:26.868Z,1.20
2022-10-02T18:46:04.839Z,1.50
2022-10-02T18:48:51.247Z,1.30
2022-10-02T18:51:32.810Z,1.27
2022-10-02T18:54:15.905Z,1.10
2022-10-02T18:56:59.833Z,1.10
2022-10-02T18:59:45.927Z,0.90
2022-10-02T19:02:23.098Z,1.10
2022-10-02T19:05:02.665Z,0.70
2022-10-02T19:07:38.368Z,0.90
2022-10-02T19:10:29.558Z,0.90
2022-10-02T19:13:01.896Z,0.93
2022-10-02T19:15:32.086Z,0.83
2022-10-02T19:18:02.601Z,0.90
2022-10-02T19:20:43.451Z,1.17
2022-10-02T19:23:20.851Z,1.03
2022-10-02T19:25:52.451Z,1.13
2022-10-02T19:28:23.214Z,1.10
2022-10-02T19:30:54.050Z,1.30
2022-10-02T19:33:28.216Z,1.47
2022-10-02T19:35:56.107Z,1.10
2022-10-02T19:38:30.122Z,1.00
2022-10-02T19:41:02.179Z,1.07
2022-10-02T19:43:32.440Z,0.70
2022-10-02T19:46:04.359Z,0.80
2022-10-02T19:48:33.807Z,1.20
2022-10-02T19:51:03.993Z,0.90
2022-10-02T19:53:34.567Z,0.70
2022-10-02T19:56:07.919Z,0.70
2022-10-02T19:58:40.468Z,0.60
2022-10-02T20:01:18.921Z,0.70
2022-10-02T20:03:47.922Z,0.50
2022-10-02T20:06:21.067Z,0.50
2022-10-02T20:08:52.879Z,0.50
2022-10-02T20:11:27.482Z,0.70
2022-10-02T20:14:01.783Z,1.00
2022-10-02T20:16:47.253Z,1.53
2022-10-02T20:19:19.383Z,1.70
2022-10-02T20:21:51.243Z,1.70
2022-10-02T20:24:25.579Z,1.40
2022-10-02T20:27:01.475Z,1.83
2022-10-02T20:29:35.406Z,1.37
2022-10-02T20:32:09.058Z,1.63
2022-10-02T20:34:41.519Z,2.17
2022-10-02T20:37:14.087Z,1.53
2022-10-02T20:39:45.583Z,1.60
2022-10-02T20:42:21.090Z,1.33
2022-10-02T20:44:48.926Z,1.57
2022-10-02T20:47:50.029Z,1.40
2022-10-02T20:50:53.642Z,1.70
2022-10-02T20:53:48.752Z,1.80
2022-10-02T20:56:43.635Z,1.80
2022-10-02T20:59:54.262Z,1.90
2022-10-02T21:02:40.100Z,1.57
2022-10-02T21:05:35.844Z,1.80
2022-10-02T21:08:36.966Z,2.50
2022-10-02T21:11:33.219Z,2.00
2022-10-02T21:14:40.959Z,2.27
2022-10-02T21:17:50.430Z,1.93
2022-10-02T21:20:51.570Z,2.10
2022-10-02T21:24:10.674Z,1.87
2022-10-02T21:27:12.775Z,2.27
2022-10-02T21:30:11.841Z,2.40
2022-10-02T21:33:04.619Z,2.60
2022-10-02T21:35:41.923Z,2.10
2022-10-02T21:39:03.669Z,2.90
2022-10-02T21:42:18.319Z,2.40
2022-10-02T21:45:23.680Z,2.30
2022-10-02T21:48:25.055Z,2.40
2022-10-02T21:51:29.696Z,2.60
2022-10-02T21:54:38.316Z,2.10
2022-10-02T21:57:46.142Z,2.90
2022-10-02T22:00:21.667Z,2.33
2022-10-02T22:03:28.797Z,2.70
2022-10-02T22:06:19.864Z,3.40
2022-10-02T22:09:19.612Z,2.60
2022-10-02T22:11:59.096Z,2.47
2022-10-02T22:14:34.682Z,3.13
2022-10-02T22:17:17.144Z,3.10
2022-10-02T22:20:04.565Z,2.80
2022-10-02T22:22:45.027Z,3.57
2022-10-02T22:25:23.132Z,3.30
2022-10-02T22:28:09.848Z,3.77
2022-10-02T22:30:47.885Z,3.97
2022-10-02T22:33:37.192Z,3.93
2022-10-02T22:36:31.972Z,3.83
2022-10-02T22:39:09.035Z,4.00
2022-10-02T22:41:44.188Z,4.03
2022-10-02T22:44:22.918Z,3.80
2022-10-02T22:46:56.693Z,3.70
2022-10-02T22:49:31.289Z,3.40
2022-10-02T22:52:05.155Z,3.60
2022-10-02T22:54:44.038Z,3.80
2022-10-02T22:57:20.216Z,3.87
2022-10-02T22:59:53.900Z,3.67
2022-10-02T23:02:26.933Z,3.97
2022-10-02T23:05:05.226Z,3.80
2022-10-02T23:07:41.500Z,4.73
2022-10-02T23:10:20.507Z,3.63
2022-10-02T23:12:58.078Z,4.20
2022-10-02T23:15:32.617Z,4.70
2022-10-02T23:18:05.014Z,4.07
2022-10-02T23:20:37.530Z,4.90
2022-10-02T23:23:17.611Z,4.47
2022-10-02T23:25:51.526Z,4.40
2022-10-02T23:28:26.355Z,4.90
2022-10-02T23:31:06.241Z,5.23
2022-10-02T23:33:44.086Z,4.97
2022-10-02T23:36:24.090Z,5.13
2022-10-02T23:38:58.164Z,5.03
2022-10-02T23:41:40.362Z,5.40
2022-10-02T23:44:18.898Z,5.10
2022-10-02T23:47:02.315Z,5.50
2022-10-02T23:49:34.944Z,5.70
2022-10-02T23:52:28.271Z,4.83
2022-10-02T23:55:18.494Z,4.30
2022-10-02T23:58:05.335Z,5.30
